createdAt,value
2023-05-08T00:00:05.333Z,101938.84
2023-05-08T00:00:37.051Z,101937.00
2023-05-08T00:01:08.831Z,101935.56
2023-05-08T00:01:40.476Z,101936.63
2023-05-08T00:02:11.995Z,101936.25
2023-05-08T00:02:43.659Z,101943.06
2023-05-08T00:03:15.445Z,101942.81
2023-05-08T00:03:47.184Z,101940.13
2023-05-08T00:04:20.571Z,101937.47
2023-05-08T00:04:52.300Z,101932.75
2023-05-08T00:05:23.931Z,101938.56
2023-05-08T00:05:55.978Z,101931.13
2023-05-08T00:06:30.083Z,101939.81
2023-05-08T00:07:01.660Z,101934.03
2023-05-08T00:07:33.179Z,101940.56
2023-05-08T00:08:04.944Z,101939.75
2023-05-08T00:08:36.453Z,101933.31
2023-05-08T00:09:08.037Z,101937.22
2023-05-08T00:09:39.562Z,101933.56
2023-05-08T00:10:11.867Z,101937.69
2023-05-08T00:10:43.568Z,101931.88
2023-05-08T00:11:15.178Z,101934.53
2023-05-08T00:11:46.747Z,101933.94
2023-05-08T00:12:18.268Z,101931.47
2023-05-08T00:12:49.797Z,101928.03
2023-05-08T00:13:21.585Z,101931.75
2023-05-08T00:13:53.183Z,101927.41
2023-05-08T00:14:24.759Z,101934.22
2023-05-08T00:14:56.548Z,101933.63
2023-05-08T00:15:28.068Z,101931.97
2023-05-08T00:15:59.755Z,101933.84
2023-05-08T00:16:32.153Z,101933.84
2023-05-08T00:17:04.127Z,101934.25
2023-05-08T00:17:35.794Z,101937.75
2023-05-08T00:18:07.438Z,101938.16
2023-05-08T00:18:39.417Z,101934.88
2023-05-08T00:19:10.978Z,101940.84
2023-05-08T00:19:42.605Z,101937.72
2023-05-08T00:20:14.643Z,101939.59
2023-05-08T00:20:46.402Z,101935.69
2023-05-08T00:21:18.025Z,101932.81
2023-05-08T00:21:49.551Z,101943.72
2023-05-08T00:22:21.537Z,101939.59
2023-05-08T00:22:53.096Z,101941.22
2023-05-08T00:23:24.615Z,101938.97
2023-05-08T00:23:56.147Z,101940.22
2023-05-08T00:24:27.659Z,101944.97
2023-05-08T00:24:59.312Z,101942.25
2023-05-08T00:25:32.002Z,101944.50
2023-05-08T00:26:03.709Z,101945.13
2023-05-08T00:26:35.265Z,101939.16
2023-05-08T00:27:08.269Z,101945.13
2023-05-08T00:27:39.804Z,101944.72
2023-05-08T00:28:11.315Z,101949.25
2023-05-08T00:28:42.957Z,101948.22
2023-05-08T00:29:14.511Z,101947.63
2023-05-08T00:29:46.084Z,101942.69
2023-05-08T00:30:18.932Z,101940.41
2023-05-08T00:30:51.012Z,101939.19
2023-05-08T00:31:24.008Z,101946.38
2023-05-08T00:31:55.664Z,101944.13
2023-05-08T00:32:27.612Z,101944.72
2023-05-08T00:32:59.429Z,101945.97
2023-05-08T00:33:31.933Z,101945.75
2023-05-08T00:34:03.643Z,101945.16
2023-05-08T00:34:36.301Z,101936.28
2023-05-08T00:35:08.325Z,101943.50
2023-05-08T00:35:42.970Z,101947.00
2023-05-08T00:36:15.798Z,101947.63
2023-05-08T00:36:47.581Z,101946.19
2023-05-08T00:37:19.134Z,101941.25
2023-05-08T00:37:50.754Z,101936.53
2023-05-08T00:38:22.371Z,101947.88
2023-05-08T00:38:54.116Z,101942.25
2023-05-08T00:39:26.419Z,101938.13
2023-05-08T00:39:57.919Z,101945.13
2023-05-08T00:40:29.513Z,101938.97
2023-05-08T00:41:01.707Z,101944.13
2023-05-08T00:41:33.285Z,101939.78
2023-05-08T00:42:05.033Z,101939.16
2023-05-08T00:42:37.533Z,101943.28
2023-05-08T00:43:09.090Z,101936.91
2023-05-08T00:43:40.703Z,101938.13
2023-05-08T00:44:12.292Z,101931.97
2023-05-08T00:44:43.787Z,101936.91
2023-05-08T00:45:15.442Z,101936.50
2023-05-08T00:45:47.247Z,101936.13
2023-05-08T00:46:18.961Z,101938.13
2023-05-08T00:46:51.684Z,101937.72
2023-05-08T00:47:23.671Z,101941.47
2023-05-08T00:47:55.655Z,101932.84
2023-05-08T00:48:31.907Z,101930.34
2023-05-08T00:49:05.136Z,101932.19
2023-05-08T00:49:36.827Z,101928.47
2023-05-08T00:50:08.984Z,101934.03
2023-05-08T00:50:40.625Z,101931.94
2023-05-08T00:51:13.373Z,101930.50
2023-05-08T00:51:46.998Z,101933.38
2023-05-08T00:52:19.318Z,101920.41
2023-05-08T00:52:50.882Z,101925.78
2023-05-08T00:53:23.429Z,101930.94
2023-05-08T00:53:55.164Z,101931.13
2023-05-08T00:54:27.330Z,101930.94
2023-05-08T00:55:00.455Z,101934.22
2023-05-08T00:55:32.887Z,101928.69
2023-05-08T00:56:05.876Z,101933.22
2023-05-08T00:56:38.542Z,101937.31
2023-05-08T00:57:10.417Z,101932.59
2023-05-08T00:57:42.772Z,101934.44
2023-05-08T00:58:14.638Z,101927.63
2023-05-08T00:58:48.160Z,101930.28
2023-05-08T00:59:20.742Z,101932.78
2023-05-08T00:59:52.617Z,101930.94
2023-05-08T01:00:24.808Z,101933.81
2023-05-08T01:00:56.893Z,101931.16
2023-05-08T01:01:28.825Z,101933.63
2023-05-08T01:02:01.293Z,101930.75
2023-05-08T01:02:34.031Z,101932.19
2023-05-08T01:03:06.024Z,101931.56
2023-05-08T01:03:38.386Z,101934.06
2023-05-08T01:04:10.659Z,101932.63
2023-05-08T01:04:44.376Z,101930.75
2023-05-08T01:05:16.031Z,101933.22
2023-05-08T01:05:48.625Z,101933.22
2023-05-08T01:06:20.470Z,101929.13
2023-05-08T01:06:52.083Z,101934.69
2023-05-08T01:07:23.718Z,101932.84
2023-05-08T01:07:55.787Z,101929.50
2023-05-08T01:08:27.508Z,101929.31
2023-05-08T01:08:59.057Z,101926.22
2023-05-08T01:09:31.160Z,101934.22
2023-05-08T01:10:02.936Z,101926.38
2023-05-08T01:10:52.876Z,101922.88
2023-05-08T01:11:33.151Z,101931.50
2023-05-08T01:12:22.755Z,101922.06
2023-05-08T01:13:30.094Z,101931.94
2023-05-08T01:14:07.943Z,101926.56
2023-05-08T01:14:59.465Z,101929.03
2023-05-08T01:15:36.377Z,101925.16
2023-05-08T01:16:17.105Z,101930.53
2023-05-08T01:16:57.871Z,101922.13
2023-05-08T01:18:16.739Z,101927.22
2023-05-08T01:18:56.017Z,101918.38
2023-05-08T01:19:49.115Z,101927.84
2023-05-08T01:20:20.630Z,101922.09
2023-05-08T01:21:01.169Z,101922.91
2023-05-08T01:21:43.327Z,101923.13
2023-05-08T01:22:33.445Z,101921.06
2023-05-08T01:23:32.886Z,101930.72
2023-05-08T01:24:17.782Z,101923.53
2023-05-08T01:25:04.837Z,101923.31
2023-05-08T01:26:02.493Z,101922.09
2023-05-08T01:26:55.392Z,101929.28
2023-05-08T01:27:40.916Z,101935.06
2023-05-08T01:28:36.486Z,101932.44
2023-05-08T01:29:35.203Z,101935.25
2023-05-08T01:30:28.901Z,101934.66
2023-05-08T01:31:38.116Z,101938.97
2023-05-08T01:32:11.602Z,101939.78
2023-05-08T01:32:46.997Z,101939.38
2023-05-08T01:33:25.667Z,101935.69
2023-05-08T01:34:22.242Z,101938.56
2023-05-08T01:35:11.238Z,101940.19
2023-05-08T01:35:46.362Z,101940.22
2023-05-08T01:36:21.236Z,101942.69
2023-05-08T01:37:05.514Z,101934.66
2023-05-08T01:37:49.004Z,101934.44
2023-05-08T01:38:58.126Z,101925.41
2023-05-08T01:39:58.809Z,101929.09
2023-05-08T01:40:33.944Z,101926.44
2023-05-08T01:41:17.188Z,101927.88
2023-05-08T01:42:02.005Z,101927.44
2023-05-08T01:42:44.371Z,101932.41
2023-05-08T01:43:37.002Z,101934.47
2023-05-08T01:44:17.230Z,101918.63
2023-05-08T01:44:54.199Z,101929.94
2023-05-08T01:45:37.593Z,101916.38
2023-05-08T01:46:13.775Z,101922.91
2023-05-08T01:46:48.853Z,101923.34
2023-05-08T01:47:21.349Z,101924.00
2023-05-08T01:48:01.558Z,101921.50
2023-05-08T01:48:34.866Z,101917.19
2023-05-08T01:49:13.009Z,101915.50
2023-05-08T01:49:48.037Z,101922.91
2023-05-08T01:50:24.319Z,101917.97
2023-05-08T01:51:01.334Z,101916.94
2023-05-08T01:51:39.308Z,101921.25
2023-05-08T01:52:18.775Z,101921.25
2023-05-08T01:52:53.457Z,101925.38
2023-05-08T01:53:29.184Z,101915.91
2023-05-08T01:54:05.534Z,101922.28
2023-05-08T01:54:47.513Z,101921.25
2023-05-08T01:55:37.966Z,101925.81
2023-05-08T01:56:17.201Z,101921.06
2023-05-08T01:56:49.151Z,101924.53
2023-05-08T01:57:22.932Z,101921.25
2023-05-08T01:57:58.235Z,101925.19
2023-05-08T01:58:30.732Z,101927.63
2023-05-08T01:59:02.815Z,101926.19
2023-05-08T01:59:35.585Z,101922.06
2023-05-08T02:00:08.702Z,101917.94
2023-05-08T02:00:44.200Z,101922.03
2023-05-08T02:01:19.084Z,101926.56
2023-05-08T02:01:53.218Z,101931.09
2023-05-08T02:02:27.338Z,101928.81
2023-05-08T02:02:59.340Z,101930.25
2023-05-08T02:03:32.596Z,101920.38
2023-05-08T02:04:06.494Z,101927.56
2023-05-08T02:04:39.842Z,101926.19
2023-05-08T02:05:12.705Z,101925.78
2023-05-08T02:05:45.010Z,101929.06
2023-05-08T02:06:20.405Z,101924.16
2023-05-08T02:06:52.328Z,101926.41
2023-05-08T02:07:25.404Z,101929.91
2023-05-08T02:07:58.813Z,101924.16
2023-05-08T02:08:32.164Z,101927.44
2023-05-08T02:09:04.005Z,101924.34
2023-05-08T02:09:36.479Z,101926.63
2023-05-08T02:10:08.680Z,101930.34
2023-05-08T02:10:41.660Z,101928.91
2023-05-08T02:11:14.623Z,101927.25
2023-05-08T02:11:46.365Z,101932.78
2023-05-08T02:12:22.349Z,101936.63
2023-05-08T02:12:55.465Z,101931.91
2023-05-08T02:13:27.870Z,101934.56
2023-05-08T02:14:01.644Z,101932.72
2023-05-08T02:14:34.133Z,101934.78
2023-05-08T02:15:06.729Z,101929.03
2023-05-08T02:15:38.935Z,101933.13
2023-05-08T02:16:12.785Z,101938.47
2023-05-08T02:16:45.341Z,101943.00
2023-05-08T02:17:17.532Z,101941.34
2023-05-08T02:17:49.914Z,101938.06
2023-05-08T02:18:23.863Z,101937.44
2023-05-08T02:18:57.340Z,101943.41
2023-05-08T02:19:29.843Z,101929.38
2023-05-08T02:20:03.654Z,101932.72
2023-05-08T02:20:35.765Z,101935.38
2023-05-08T02:21:09.473Z,101937.25
2023-05-08T02:21:41.184Z,101935.75
2023-05-08T02:22:13.632Z,101936.00
2023-05-08T02:22:46.059Z,101933.72
2023-05-08T02:23:36.133Z,101943.00
2023-05-08T02:24:08.432Z,101938.13
2023-05-08T02:24:40.707Z,101941.41
2023-05-08T02:25:14.656Z,101942.78
2023-05-08T02:25:47.264Z,101939.91
2023-05-08T02:26:19.320Z,101938.53
2023-05-08T02:26:51.899Z,101940.97
2023-05-08T02:27:26.011Z,101941.94
2023-05-08T02:27:58.209Z,101936.53
2023-05-08T02:28:30.003Z,101938.75
2023-05-08T02:29:04.037Z,101942.47
2023-05-08T02:29:36.231Z,101937.56
2023-05-08T02:30:08.732Z,101945.38
2023-05-08T02:30:40.580Z,101937.56
2023-05-08T02:31:12.645Z,101936.75
2023-05-08T02:31:45.453Z,101938.41
2023-05-08T02:32:18.544Z,101939.22
2023-05-08T02:32:50.334Z,101938.59
2023-05-08T02:33:22.987Z,101938.59
2023-05-08T02:33:55.413Z,101943.91
2023-05-08T02:34:27.358Z,101938.97
2023-05-08T02:35:03.505Z,101937.97
2023-05-08T02:35:37.435Z,101937.53
2023-05-08T02:36:11.570Z,101939.81
2023-05-08T02:36:43.297Z,101941.66
2023-05-08T02:37:15.103Z,101942.69
2023-05-08T02:37:58.062Z,101940.41
2023-05-08T02:38:30.366Z,101943.91
2023-05-08T02:39:03.192Z,101941.81
2023-05-08T02:39:35.887Z,101933.41
2023-05-08T02:40:08.870Z,101942.19
2023-05-08T02:40:44.297Z,101944.84
2023-05-08T02:41:18.635Z,101944.13
2023-05-08T02:41:51.004Z,101944.75
2023-05-08T02:42:22.571Z,101941.66
2023-05-08T02:42:55.189Z,101945.28
2023-05-08T02:43:27.120Z,101950.78
2023-05-08T02:43:59.225Z,101938.84
2023-05-08T02:44:30.869Z,101941.53
2023-05-08T02:45:03.703Z,101944.63
2023-05-08T02:45:50.457Z,101940.28
2023-05-08T02:46:39.822Z,101938.84
2023-05-08T02:47:44.098Z,101941.63
2023-05-08T02:48:23.882Z,101935.16
2023-05-08T02:48:57.391Z,101940.09
2023-05-08T02:49:33.978Z,101939.47
2023-05-08T02:50:16.971Z,101937.22
2023-05-08T02:50:56.022Z,101947.25
2023-05-08T02:51:47.197Z,101941.31
2023-05-08T02:52:23.666Z,101936.63
2023-05-08T02:53:05.372Z,101944.09
2023-05-08T02:53:52.636Z,101946.28
2023-05-08T02:54:30.495Z,101944.97
2023-05-08T02:55:15.343Z,101948.69
2023-05-08T02:55:49.696Z,101942.28
2023-05-08T02:56:35.892Z,101944.09
2023-05-08T02:57:29.252Z,101947.34
2023-05-08T02:58:08.019Z,101944.41
2023-05-08T02:58:46.169Z,101951.09
2023-05-08T02:59:22.548Z,101947.41
2023-05-08T03:00:01.425Z,101945.56
2023-05-08T03:00:49.400Z,101943.34
2023-05-08T03:01:33.771Z,101941.38
2023-05-08T03:02:17.906Z,101942.78
2023-05-08T03:03:36.309Z,101941.38
2023-05-08T03:04:09.565Z,101947.09
2023-05-08T03:04:53.223Z,101944.16
2023-05-08T03:05:33.020Z,101948.66
2023-05-08T03:06:06.866Z,101944.97
2023-05-08T03:06:45.213Z,101947.81
2023-05-08T03:07:16.948Z,101948.22
2023-05-08T03:07:51.406Z,101949.06
2023-05-08T03:08:31.473Z,101956.06
2023-05-08T03:09:04.096Z,101953.63
2023-05-08T03:09:41.799Z,101953.25
2023-05-08T03:10:16.105Z,101954.00
2023-05-08T03:10:51.432Z,101951.31
2023-05-08T03:11:28.696Z,101944.47
2023-05-08T03:12:06.280Z,101941.59
2023-05-08T03:12:42.672Z,101940.75
2023-05-08T03:13:16.088Z,101949.56
2023-05-08T03:13:50.617Z,101945.25
2023-05-08T03:14:24.308Z,101946.56
2023-05-08T03:15:08.098Z,101944.63
2023-05-08T03:15:45.815Z,101947.31
2023-05-08T03:16:20.735Z,101947.38
2023-05-08T03:16:55.364Z,101941.41
2023-05-08T03:17:28.974Z,101933.38
2023-05-08T03:18:07.826Z,101945.06
2023-05-08T03:18:50.074Z,101933.88
2023-05-08T03:19:28.578Z,101944.34
2023-05-08T03:20:03.910Z,101940.44
2023-05-08T03:20:38.144Z,101942.09
2023-05-08T03:21:11.247Z,101943.69
2023-05-08T03:21:44.190Z,101947.00
2023-05-08T03:22:16.644Z,101941.69
2023-05-08T03:22:48.718Z,101946.88
2023-05-08T03:23:22.181Z,101942.94
2023-05-08T03:23:54.270Z,101938.00
2023-05-08T03:24:28.407Z,101946.00
2023-05-08T03:25:01.615Z,101945.38
2023-05-08T03:25:34.238Z,101944.56
2023-05-08T03:26:05.920Z,101945.78
2023-05-08T03:26:37.599Z,101949.66
2023-05-08T03:27:09.941Z,101942.06
2023-05-08T03:27:42.072Z,101944.13
2023-05-08T03:28:14.856Z,101941.06
2023-05-08T03:28:49.539Z,101950.81
2023-05-08T03:29:23.054Z,101943.88
2023-05-08T03:29:55.654Z,101945.94
2023-05-08T03:30:27.690Z,101941.81
2023-05-08T03:31:06.311Z,101936.47
2023-05-08T03:31:38.029Z,101932.56
2023-05-08T03:32:11.706Z,101941.81
2023-05-08T03:32:45.819Z,101941.81
2023-05-08T03:33:18.206Z,101935.66
2023-05-08T03:33:53.529Z,101941.41
2023-05-08T03:34:26.420Z,101935.03
2023-05-08T03:34:58.993Z,101940.19
2023-05-08T03:35:31.378Z,101938.28
2023-05-08T03:36:03.135Z,101937.84
2023-05-08T03:36:35.002Z,101941.75
2023-05-08T03:37:07.530Z,101935.41
2023-05-08T03:37:39.125Z,101937.66
2023-05-08T03:38:11.588Z,101944.00
2023-05-08T03:38:43.320Z,101940.13
2023-05-08T03:39:15.464Z,101940.53
2023-05-08T03:39:47.179Z,101947.53
2023-05-08T03:40:18.957Z,101937.66
2023-05-08T03:40:51.138Z,101939.72
2023-05-08T03:41:23.000Z,101947.31
2023-05-08T03:41:55.779Z,101938.06
2023-05-08T03:42:27.750Z,101939.31
2023-05-08T03:43:00.669Z,101945.88
2023-05-08T03:43:33.006Z,101949.78
2023-05-08T03:44:05.180Z,101948.75
2023-05-08T03:44:37.877Z,101947.69
2023-05-08T03:45:10.746Z,101949.53
2023-05-08T03:45:44.980Z,101945.19
2023-05-08T03:46:16.918Z,101944.97
2023-05-08T03:46:50.894Z,101948.69
2023-05-08T03:47:26.329Z,101944.19
2023-05-08T03:47:59.865Z,101951.63
2023-05-08T03:48:33.599Z,101944.97
2023-05-08T03:49:06.194Z,101946.22
2023-05-08T03:49:38.236Z,101941.56
2023-05-08T03:50:10.578Z,101943.88
2023-05-08T03:50:42.465Z,101943.88
2023-05-08T03:51:15.851Z,101941.00
2023-05-08T03:51:48.207Z,101939.34
2023-05-08T03:52:19.986Z,101939.34
2023-05-08T03:52:52.026Z,101937.09
2023-05-08T03:53:23.929Z,101940.38
2023-05-08T03:53:55.600Z,101935.03
2023-05-08T03:54:30.220Z,101937.72
2023-05-08T03:55:02.648Z,101932.16
2023-05-08T03:55:36.200Z,101933.59
2023-05-08T03:56:10.032Z,101934.00
2023-05-08T03:56:41.736Z,101939.09
2023-05-08T03:57:14.118Z,101935.22
2023-05-08T03:58:03.296Z,101934.00
2023-05-08T03:58:41.937Z,101932.94
2023-05-08T03:59:33.226Z,101932.34
2023-05-08T04:00:20.412Z,101930.09
2023-05-08T04:01:14.246Z,101937.50
2023-05-08T04:02:11.891Z,101929.91
2023-05-08T04:02:57.751Z,101930.88
2023-05-08T04:03:49.162Z,101932.72
2023-05-08T04:04:30.697Z,101928.19
2023-05-08T04:05:08.890Z,101934.28
2023-05-08T04:06:48.471Z,101931.00
2023-05-08T04:07:38.772Z,101928.09
2023-05-08T04:08:24.031Z,101935.59
2023-05-08T04:09:03.249Z,101924.31
2023-05-08T04:09:39.004Z,101923.69
2023-05-08T04:10:16.853Z,101927.00
2023-05-08T04:11:05.962Z,101937.91
2023-05-08T04:11:37.643Z,101935.84
2023-05-08T04:12:18.344Z,101938.69
2023-05-08T04:13:11.600Z,101945.94
2023-05-08T04:13:50.702Z,101944.19
2023-05-08T04:14:24.999Z,101943.19
2023-05-08T04:15:03.642Z,101949.75
2023-05-08T04:15:38.901Z,101946.28
2023-05-08T04:16:14.837Z,101941.81
2023-05-08T04:16:50.542Z,101952.72
2023-05-08T04:17:39.665Z,101946.97
2023-05-08T04:18:16.768Z,101942.22
2023-05-08T04:18:50.773Z,101946.53
2023-05-08T04:19:32.988Z,101950.59
2023-05-08T04:20:05.235Z,101944.44
2023-05-08T04:20:39.339Z,101944.25
2023-05-08T04:21:11.627Z,101939.72
2023-05-08T04:21:43.594Z,101937.25
2023-05-08T04:22:18.163Z,101948.78
2023-05-08T04:23:20.361Z,101941.75
2023-05-08T04:23:53.583Z,101946.63
2023-05-08T04:24:28.021Z,101944.16
2023-05-08T04:25:03.165Z,101947.88
2023-05-08T04:25:37.239Z,101944.53
2023-05-08T04:26:09.314Z,101946.59
2023-05-08T04:26:41.885Z,101944.53
2023-05-08T04:27:14.068Z,101946.22
2023-05-08T04:27:46.910Z,101952.78
2023-05-08T04:28:20.428Z,101943.75
2023-05-08T04:28:52.240Z,101947.22
2023-05-08T04:29:24.203Z,101939.59
2023-05-08T04:29:56.703Z,101932.97
2023-05-08T04:30:29.858Z,101937.13
2023-05-08T04:31:03.173Z,101934.03
2023-05-08T04:31:35.727Z,101940.03
2023-05-08T04:32:08.229Z,101943.97
2023-05-08T04:32:43.485Z,101941.34
2023-05-08T04:33:18.618Z,101938.88
2023-05-08T04:33:50.982Z,101936.75
2023-05-08T04:34:23.344Z,101933.84
2023-05-08T04:34:55.424Z,101935.28
2023-05-08T04:35:28.003Z,101929.56
2023-05-08T04:36:02.444Z,101941.44
2023-05-08T04:36:34.542Z,101934.88
2023-05-08T04:37:08.128Z,101934.66
2023-05-08T04:37:42.079Z,101933.66
2023-05-08T04:38:13.921Z,101935.94
2023-05-08T04:38:46.294Z,101939.44
2023-05-08T04:39:18.446Z,101935.50
2023-05-08T04:39:53.323Z,101936.75
2023-05-08T04:40:25.718Z,101940.03
2023-05-08T04:40:57.423Z,101933.03
2023-05-08T04:41:29.533Z,101943.72
2023-05-08T04:42:03.744Z,101933.03
2023-05-08T04:42:39.428Z,101932.59
2023-05-08T04:43:11.208Z,101938.78
2023-05-08T04:43:43.286Z,101932.16
2023-05-08T04:44:14.965Z,101936.31
2023-05-08T04:44:47.705Z,101937.78
2023-05-08T04:45:19.462Z,101942.91
2023-05-08T04:45:51.105Z,101936.31
2023-05-08T04:46:24.533Z,101933.03
2023-05-08T04:46:56.461Z,101930.53
2023-05-08T04:47:28.277Z,101933.47
2023-05-08T04:47:59.997Z,101937.44
2023-05-08T04:48:33.264Z,101931.78
2023-05-08T04:49:05.042Z,101927.69
2023-05-08T04:49:36.919Z,101937.78
2023-05-08T04:50:09.119Z,101932.66
2023-05-08T04:50:40.713Z,101933.03
2023-05-08T04:51:12.308Z,101934.69
2023-05-08T04:51:43.950Z,101928.53
2023-05-08T04:52:15.957Z,101935.50
2023-05-08T04:52:47.521Z,101940.84
2023-05-08T04:53:19.139Z,101937.53
2023-05-08T04:53:50.742Z,101936.25
2023-05-08T04:54:22.326Z,101926.38
2023-05-08T04:54:54.173Z,101931.78
2023-05-08T04:55:25.941Z,101927.59
2023-05-08T04:55:58.588Z,101930.50
2023-05-08T04:56:30.996Z,101930.28
2023-05-08T04:57:02.684Z,101935.50
2023-05-08T04:57:34.527Z,101930.53
2023-05-08T04:58:06.358Z,101938.41
2023-05-08T04:58:38.014Z,101940.66
2023-05-08T04:59:10.084Z,101940.88
2023-05-08T04:59:41.775Z,101939.19
2023-05-08T05:00:13.883Z,101944.53
2023-05-08T05:00:47.005Z,101940.03
2023-05-08T05:01:18.641Z,101934.69
2023-05-08T05:01:50.479Z,101942.50
2023-05-08T05:02:22.334Z,101945.38
2023-05-08T05:02:54.341Z,101942.50
2023-05-08T05:03:26.052Z,101942.09
2023-05-08T05:03:57.764Z,101940.94
2023-05-08T05:04:29.884Z,101951.47
2023-05-08T05:05:02.114Z,101943.06
2023-05-08T05:05:38.266Z,101946.75
2023-05-08T05:06:11.332Z,101948.97
2023-05-08T05:06:43.332Z,101946.13
2023-05-08T05:07:15.176Z,101945.53
2023-05-08T05:07:46.776Z,101945.13
2023-05-08T05:08:18.501Z,101951.28
2023-05-08T05:08:50.089Z,101954.56
2023-05-08T05:09:21.922Z,101952.91
2023-05-08T05:09:53.770Z,101957.00
2023-05-08T05:10:25.619Z,101960.50
2023-05-08T05:10:57.196Z,101960.94
2023-05-08T05:11:28.918Z,101964.84
2023-05-08T05:12:01.051Z,101964.84
2023-05-08T05:12:33.151Z,101967.31
2023-05-08T05:13:04.832Z,101963.00
2023-05-08T05:13:36.987Z,101967.16
2023-05-08T05:14:08.868Z,101966.59
2023-05-08T05:14:40.586Z,101969.41
2023-05-08T05:15:12.647Z,101961.19
2023-05-08T05:15:44.668Z,101969.84
2023-05-08T05:16:17.229Z,101963.00
2023-05-08T05:16:48.888Z,101966.09
2023-05-08T05:17:20.612Z,101973.09
2023-05-08T05:17:52.199Z,101969.22
2023-05-08T05:18:23.957Z,101969.19
2023-05-08T05:18:57.093Z,101970.66
2023-05-08T05:19:28.737Z,101970.25
2023-05-08T05:20:00.959Z,101968.59
2023-05-08T05:20:32.858Z,101973.53
2023-05-08T05:21:05.128Z,101967.56
2023-05-08T05:21:38.075Z,101968.16
2023-05-08T05:22:09.767Z,101971.03
2023-05-08T05:22:41.409Z,101968.97
2023-05-08T05:23:13.403Z,101973.75
2023-05-08T05:23:45.017Z,101971.03
2023-05-08T05:24:16.651Z,101974.56
2023-05-08T05:24:48.173Z,101975.19
2023-05-08T05:25:19.921Z,101974.78
2023-05-08T05:25:51.532Z,101972.72
2023-05-08T05:26:23.354Z,101979.75
2023-05-08T05:26:55.116Z,101976.22
2023-05-08T05:27:26.683Z,101974.78
2023-05-08T05:27:58.282Z,101975.19
2023-05-08T05:28:30.024Z,101975.19
2023-05-08T05:29:02.311Z,101974.34
2023-05-08T05:29:34.008Z,101977.03
2023-05-08T05:30:06.441Z,101976.41
2023-05-08T05:30:38.225Z,101982.19
2023-05-08T05:31:10.214Z,101980.13
2023-05-08T05:31:42.522Z,101980.94
2023-05-08T05:32:14.166Z,101980.91
2023-05-08T05:32:46.006Z,101975.16
2023-05-08T05:33:18.024Z,101986.88
2023-05-08T05:33:49.673Z,101980.13
2023-05-08T05:34:21.562Z,101987.94
2023-05-08T05:34:53.957Z,101986.34
2023-05-08T05:35:26.209Z,101982.53
2023-05-08T05:35:59.328Z,101988.31
2023-05-08T05:36:30.952Z,101988.31
2023-05-08T05:37:02.531Z,101978.03
2023-05-08T05:37:34.237Z,101988.50
2023-05-08T05:38:05.887Z,101988.34
2023-05-08T05:38:38.311Z,101980.53
2023-05-08T05:39:10.275Z,101991.22
2023-05-08T05:39:43.322Z,101980.53
2023-05-08T05:40:15.388Z,101982.19
2023-05-08T05:40:50.352Z,101988.94
2023-05-08T05:41:22.474Z,101988.34
2023-05-08T05:41:53.985Z,101994.31
2023-05-08T05:42:25.860Z,101990.00
2023-05-08T05:42:57.612Z,101990.00
2023-05-08T05:43:32.822Z,101986.28
2023-05-08T05:44:04.595Z,101987.72
2023-05-08T05:44:37.072Z,101987.53
2023-05-08T05:45:09.051Z,101993.22
2023-05-08T05:45:41.234Z,101997.13
2023-05-08T05:46:13.231Z,102002.69
2023-05-08T05:46:45.610Z,102005.56
2023-05-08T05:47:17.325Z,102003.50
2023-05-08T05:47:50.128Z,101998.16
2023-05-08T05:48:23.726Z,102001.47
2023-05-08T05:48:55.701Z,101997.75
2023-05-08T05:49:27.287Z,101996.31
2023-05-08T05:49:59.028Z,101999.59
2023-05-08T05:50:31.475Z,101998.56
2023-05-08T05:51:04.414Z,102000.28
2023-05-08T05:51:35.976Z,101997.81
2023-05-08T05:52:07.522Z,101999.03
2023-05-08T05:52:39.104Z,101996.75
2023-05-08T05:53:10.842Z,102001.66
2023-05-08T05:53:42.466Z,102002.75
2023-05-08T05:54:14.567Z,101991.22
2023-05-08T05:54:46.672Z,101995.13
2023-05-08T05:55:18.346Z,101994.31
2023-05-08T05:55:51.599Z,101999.00
2023-05-08T05:56:23.459Z,101999.03
2023-05-08T05:56:55.080Z,102002.13
2023-05-08T05:57:26.692Z,101996.97
2023-05-08T05:57:58.379Z,102003.78
2023-05-08T05:58:30.080Z,101994.53
2023-05-08T05:59:01.766Z,101996.16
2023-05-08T05:59:34.141Z,102005.22
2023-05-08T06:00:06.515Z,102000.28
2023-05-08T06:00:46.016Z,102002.53
2023-05-08T06:01:17.685Z,102000.28
2023-05-08T06:01:49.340Z,101999.88
2023-05-08T06:02:22.727Z,101998.22
2023-05-08T06:02:54.526Z,101996.97
2023-05-08T06:03:26.562Z,102001.91
2023-05-08T06:03:58.477Z,102000.28
2023-05-08T06:04:33.240Z,102000.69
2023-05-08T06:05:05.587Z,101997.81
2023-05-08T06:05:37.550Z,101998.63
2023-05-08T06:06:09.117Z,102000.69
2023-05-08T06:06:40.701Z,101997.81
2023-05-08T06:07:12.526Z,102003.16
2023-05-08T06:07:44.097Z,102004.63
2023-05-08T06:08:17.900Z,102008.47
2023-05-08T06:08:49.646Z,102001.88
2023-05-08T06:09:21.616Z,102003.38
2023-05-08T06:09:56.400Z,101998.63
2023-05-08T06:10:28.477Z,101998.22
2023-05-08T06:11:00.169Z,102001.75
2023-05-08T06:11:31.834Z,102003.00
2023-05-08T06:12:03.774Z,102002.19
2023-05-08T06:12:35.867Z,101991.69
2023-05-08T06:13:09.716Z,102003.22
2023-05-08T06:13:41.589Z,101995.00
2023-05-08T06:14:13.509Z,102001.56
2023-05-08T06:14:45.279Z,102001.38
2023-05-08T06:15:17.058Z,102005.09
2023-05-08T06:15:50.889Z,101997.03
2023-05-08T06:16:24.945Z,101997.44
2023-05-08T06:16:56.784Z,102003.44
2023-05-08T06:17:28.411Z,101999.31
2023-05-08T06:18:00.231Z,102007.94
2023-05-08T06:18:31.810Z,102002.78
2023-05-08T06:19:03.335Z,102002.00
2023-05-08T06:19:35.422Z,102006.47
2023-05-08T06:20:07.432Z,101999.06
2023-05-08T06:20:39.187Z,102006.44
2023-05-08T06:21:11.311Z,102000.38
2023-05-08T06:21:42.867Z,101999.63
2023-05-08T06:22:14.415Z,102001.75
2023-05-08T06:22:46.088Z,101994.94
2023-05-08T06:23:17.923Z,101995.00
2023-05-08T06:23:51.051Z,101998.69
2023-05-08T06:24:22.562Z,101998.25
2023-05-08T06:24:54.147Z,101996.41
2023-05-08T06:25:25.717Z,101998.47
2023-05-08T06:25:57.286Z,101997.34
2023-05-08T06:26:28.829Z,102001.53
2023-05-08T06:27:00.352Z,101995.34
2023-05-08T06:27:31.901Z,101992.97
2023-05-08T06:28:06.498Z,101990.28
2023-05-08T06:28:38.046Z,101992.06
2023-05-08T06:29:09.503Z,101991.25
2023-05-08T06:29:43.898Z,101989.06
2023-05-08T06:30:15.467Z,101990.22
2023-05-08T06:30:47.024Z,102002.75
2023-05-08T06:31:19.222Z,101997.78
2023-05-08T06:31:50.996Z,101991.47
2023-05-08T06:32:22.611Z,101994.75
2023-05-08T06:32:54.279Z,101991.44
2023-05-08T06:33:26.963Z,101996.44
2023-05-08T06:33:58.765Z,101988.81
2023-05-08T06:34:30.246Z,101998.53
2023-05-08T06:35:01.745Z,101995.22
2023-05-08T06:35:33.237Z,101993.59
2023-05-08T06:36:06.216Z,101996.53